Aviation Digital Data Service (ADDS)

Output produced by METARs form (1304 UTC 26 March 2019)
found at http://www.aviationweather.gov/metar/data/
 
KLAF 261130Z 2612/2712 VRB03KT P6SM SKC 
     FM261300 05005KT P6SM SKC AMD LTD TO CLD VIS AND WIND TIL 261300
       
KLAL 261139Z 2612/2712 32005KT P6SM SCT010 
     TEMPO 2612/2613 BKN010 
     FM261400 32006KT P6SM SCT025 
     FM261800 30010KT P6SM FEW040 
     FM270100 29004KT P6SM FEW030 
     FM271100 36008KT P6SM SCT010 BKN030
       
KLAN 261125Z 2612/2712 VRB04KT P6SM SKC
       
KLAR 261129Z 2612/2712 21008KT P6SM BKN200 
     FM261800 23012G18KT P6SM BKN200 
     FM270100 24008KT P6SM BKN200
       
KLAS 261136Z 2612/2718 VRB05KT P6SM BKN250 
     FM261630 08007KT P6SM BKN250 
     FM262200 21012G20KT P6SM SCT250 
     FM270230 21010KT P6SM SCT250
       
KLAX 261123Z 2612/2718 VRB03KT P6SM BKN200 
     FM262000 26012KT P6SM SCT080 OVC150 
     FM270300 26008KT P6SM FEW025 OVC060 
     FM270600 26006KT P6SM BKN025 OVC050 
     FM271300 VRB03KT P6SM SCT015 OVC025
       
KLBB 261258Z 2613/2712 12009KT 6SM BR SCT004 
     FM261500 17010KT P6SM FEW035 SCT250
       
KLBE 261121Z 2612/2712 01005KT P6SM SKC
       
KLBF 261124Z 2612/2712 VRB03KT 1/4SM FG VV002 
     FM261600 20005KT P6SM SCT007 SCT250 
     FM261800 20010G17KT P6SM SCT250 
     FM262100 19013G21KT P6SM SCT250 
     FM270100 16008KT P6SM SCT250
       
KLBL 261120Z 2612/2712 18010KT P6SM BKN070 
     TEMPO 2612/2614 5SM BR 
     FM261700 19015G25KT P6SM FEW250
       
KLBT 261126Z 2612/2712 03013G21KT 6SM -DZ BR BKN008 
     FM261300 04010KT P6SM BKN015 
     FM261600 05011KT P6SM BKN050 
     FM262100 05009KT P6SM SKC AMD NOT SKED
       
KLCK 261131Z 2612/2712 02006KT P6SM SKC 
     FM261400 03010G16KT P6SM SKC 
     FM262200 02007KT P6SM SKC 
     FM270300 04004KT P6SM SCT200
       
KLCH 261122Z 2612/2712 03011KT P6SM SKC 
     FM270100 04004KT P6SM SKC
       
KLEB 261120Z 2612/2712 32010KT P6SM SKC 
     FM270000 00000KT P6SM SKC
       
KLEE 261123Z 2612/2712 28005KT P6SM FEW005 
     FM261400 31007KT P6SM SCT030 
     FM261800 30008KT P6SM FEW040 SCT060 
     FM270100 01007KT P6SM FEW060
       
KLEX 261120Z 2612/2712 02011KT P6SM SKC
       
TAF KLFI 260900Z 2609/2715 03012G18KT 8000 -RA BKN017 510005 QNH2997INS 
     TEMPO 2609/2611 03020G35KT BKN020 
     BECMG 2611/2612 04015G25KT 9999 NSW SCT020 BKN050 QNH2999INS 
     BECMG 2621/2622 05012KT 9999 SCT050 QNH3010INS 
     BECMG 2623/2624 05009KT 9999 SKC QNH3025INS TX09/2620Z TN03/2709Z
       
KLFK 261130Z 2612/2712 36004KT P6SM SKC 
     FM261500 04007KT P6SM SKC 
     FM270000 VRB03KT P6SM SKC
       
KLFT 261122Z 2612/2712 01010KT P6SM SKC 
     FM261800 36012G21KT P6SM SKC 
     FM270100 36004KT P6SM SKC
       
KLGA 261135Z 2612/2718 02014G22KT P6SM FEW250 
     FM261600 01014G20KT P6SM SKC 
     FM270000 34010KT P6SM SKC 
     FM271000 01008KT P6SM SKC 
     FM271500 06005KT P6SM SKC
       
KLGB 261123Z 2612/2712 VRB03KT P6SM BKN200 
     FM262000 20008KT P6SM SCT080 OVC150 
     FM262300 29008KT P6SM SCT080 OVC150 
     FM270400 VRB03KT P6SM FEW025 OVC060 
     FM270800 VRB03KT P6SM BKN025 OVC050
       
KLGU 261120Z 2612/2712 VRB04KT P6SM BKN200 
     FM262000 24010KT P6SM BKN200 
     FM270200 VRB04KT P6SM SCT200
       
KLIT 261136Z 2612/2712 01008KT P6SM SCT040 
     FM270000 05004KT P6SM SKC
       
KLLQ 261136Z 2612/2712 02006KT P6SM SCT040 
     FM270000 05004KT P6SM SKC
       
KLMT 261141Z 2612/2712 VRB03KT P6SM SCT100 
     FM262200 19012KT P6SM SCT070 BKN200 
     FM270400 15008KT P6SM VCSH BKN070 OVC100
       
KLND 261121Z 2612/2712 VRB05KT P6SM BKN200 
     FM262100 23011KT P6SM SCT200
       
KLNK 261120Z 2612/2712 VRB04KT P6SM OVC045 
     FM261400 16007KT P6SM BKN080 
     FM261700 18014KT P6SM SCT050 
     FM270700 19013KT P6SM FEW250 WS020/21040KT
       
KLNS 261121Z 2612/2712 01006KT P6SM SKC
       
KLOZ 261120Z 2612/2712 03005KT P6SM SKC 
     FM261300 03005KT P6SM SKC
       
KLRD 261300Z 2613/2712 04012KT P6SM VCSH BKN006 OVC025 
     FM261600 06014G18KT P6SM VCSH BKN012 OVC025 
     FM262100 09012KT P6SM OVC035 
     FM270500 12008KT P6SM SCT020 BKN070
       
TAF KLRF 260700Z 2607/2713 36009KT 9999 FEW060 QNH3018INS 
     BECMG 2616/2617 02012G18KT 9999 SCT040 QNH3020INS 
     BECMG 2622/2623 04006KT 9999 FEW050 QNH3024INS TX14/2621Z TN04/2707Z
       
KLRU 261120Z 2612/2712 12007KT P6SM BKN250 
     FM262100 12010KT P6SM VCTS SCT050CB BKN200 
     TEMPO 2623/2703 VRB25G40KT 1SM TSGR OVC040CB 
     FM270600 14009KT P6SM SCT100 BKN250
       
KLSE 261133Z 2612/2712 18006KT P6SM FEW250 
     FM270700 18006KT P6SM BKN060 
     FM270900 18005KT P6SM BKN050 WS020/21035KT
       
TAF AMD KLSF 261210Z 2612/2715 33006KT 4800 BR SCT030 QNH3001INS 
     BECMG 2615/2616 34009KT 9999 NSW SCT020 QNH3006INS 
     BECMG 2622/2623 36010G15KT 8000 -RA OVC020 QNH3008INS 
     BECMG 2705/2706 03006KT 4800 -RA BR OVC015 QNH3018INS 
     BECMG 2708/2709 VRB06KT 1600 BR SCT015 BKN025 QNH3022INS 
     BECMG 2713/2714 06010G15KT 9999 NSW SKC QNH3032INS TX21/2620Z TN08/2709Z
       
TAF KLSV 260700Z 2607/2713 VRB06KT 9999 SKC QNH2990INS 
     BECMG 2620/2621 19012KT 9999 SCT230 QNH3006INS TX28/2622Z TN12/2613Z
       
TAF KLTS 260900Z 2609/2715 VRB06KT 9999 FEW045 QNH3033INS 
     BECMG 2611/2612 VRB06KT 8000 BR SCT040 QNH3035INS 
     BECMG 2614/2615 10012KT 9999 NSW FEW040 BKN050 QNH3024INS WND 14012KT AFT
2618 
     BECMG 2623/2624 VRB06KT 9999 FEW055 QNH3026INS 
     BECMG 2711/2712 VRB06KT 4800 BR FEW230 QNH3025INS 
     BECMG 2714/2715 17009KT 9999 NSW FEW007 QNH3026INS TX19/2620Z TN05/2612Z
       
TAF KLUF 261200Z 2612/2718 VRB06KT 9999 FEW200 QNH2984INS 
     BECMG 2623/2624 VRB06KT 9999 SCT200 QNH2984INS 
     BECMG 2715/2716 VRB06KT 9999 BKN200 QNH2982INSZ TX30/2623Z TN10/2612Z
       
KLVK 261129Z 2612/2712 VRB03KT P6SM BKN025 OVC040 
     FM261900 25008KT P6SM VCSH BKN040 BKN060 
     FM270300 23003KT P6SM VCSH SCT050 OVC200 
     FM271000 15005KT P6SM -RA BKN030 OVC050
       
KLVM 261133Z 2612/2712 26010KT P6SM BKN200 
     FM261800 23018G28KT P6SM FEW100 BKN200
       
KLVS 261138Z 2612/2712 04007KT P6SM SKC 
     FM261500 16008KT P6SM SCT250 
     FM261800 20018G30KT P6SM BKN250 
     FM270300 19011KT P6SM VCSH SCT040 BKN070
       
KLWB 261135Z 2612/2712 36005KT P6SM OVC015 
     FM261500 02007KT P6SM SCT025 
     FM262000 36004KT P6SM SKC
       
KLWS 261227Z 2612/2712 32007KT 5SM -SHRA BR SCT030 OVC050 
     FM261400 30006KT P6SM SCT060 BKN100 
     FM261900 31005G12KT P6SM SCT060 
     FM270200 VRB03KT P6SM SKC
       
KLWT 261140Z 2612/2712 11005KT P6SM SCT100 BKN150 
     FM261900 24008KT P6SM SCT060 BKN100 
     PROB30 2704/2708 -SHRA BKN050
       
KLYH 261135Z 2612/2712 04012G20KT P6SM FEW015 SCT035 OVC050 
     TEMPO 2612/2614 SCT015 OVC035 
     FM261500 04012G20KT P6SM BKN050 
     FM261700 04010KT P6SM FEW060 
     FM262200 04007KT P6SM SKC